Time;durP1;ratioP1;P1;durP2;ratioP2;P2;SDS_P1;SDS_P2;PMS_P1;PMS_P2;Temp;Humidity;BMP_temperature;BMP_pressure;BME280_temperature;BME280_humidity;BME280_pressure;Samples;Min_cycle;Max_cycle;Signal;HPM_P1;HPM_P2
2023/01/28 00:00:18;;;;;;;;;;;;;;;14.80;61.91;98285.38;2069067;28;20546;-47
2023/01/28 00:01:19;;;;;;;7.32;3.40;;;;;;;14.86;61.80;98281.94;2069701;28;19940;-48
2023/01/28 00:02:21;;;;;;;;;;;;;;;14.88;61.76;98271.91;2070388;28;20153;-47
2023/01/28 00:03:21;;;;;;;;;;;;;;;14.84;61.82;98278.63;2069295;28;19925;-49
2023/01/28 00:04:23;;;;;;;4.87;3.50;;;;;;;14.90;61.88;98279.72;2071549;28;19925;-49
2023/01/28 00:05:24;;;;;;;6.57;3.47;;;;;;;14.98;61.49;98274.25;2069001;28;20089;-51
2023/01/28 00:06:25;;;;;;;;;;;;;;;14.93;61.55;98282.84;2072068;28;20049;-48
2023/01/28 00:07:26;;;;;;;7.00;3.95;;;;;;;14.98;61.70;98271.59;2072910;28;19925;-47
2023/01/28 00:08:28;;;;;;;;;;;;;;;14.97;61.58;98272.63;2070581;28;20045;-51
2023/01/28 00:09:30;;;;;;;4.78;3.38;;;;;;;15.03;61.51;98266.50;2069155;28;20485;-50
2023/01/28 00:10:31;;;;;;;4.30;3.03;;;;;;;15.08;61.35;98273.97;2070972;28;20103;-48
2023/01/28 00:11:32;;;;;;;5.80;3.53;;;;;;;15.09;61.20;98273.75;2069396;28;20075;-48
2023/01/28 00:12:33;;;;;;;;;;;;;;;15.08;61.35;98274.78;2072240;28;20041;-48
2023/01/28 00:13:34;;;;;;;8.07;3.15;;;;;;;15.12;61.16;98272.56;2071110;28;19986;-46
2023/01/28 00:14:36;;;;;;;;;;;;;;;15.05;61.35;98271.69;2070905;28;20066;-52
2023/01/28 00:15:36;;;;;;;6.65;3.05;;;;;;;15.12;61.26;98270.72;2070103;28;19921;-51
2023/01/28 00:16:38;;;;;;;;;;;;;;;15.09;61.21;98270.28;2071601;28;20049;-48
2023/01/28 00:17:39;;;;;;;3.63;2.47;;;;;;;15.17;61.11;98273.66;2070792;28;20367;-51
2023/01/28 00:18:40;;;;;;;;;;;;;;;15.11;61.36;98273.59;2072563;28;20046;-49
2023/01/28 00:19:41;;;;;;;4.50;2.58;;;;;;;15.18;61.17;98269.97;2071394;28;19962;-53
2023/01/28 00:20:42;;;;;;;;;;;;;;;15.11;61.41;98270.91;2072708;28;20054;-48
2023/01/28 00:21:43;;;;;;;6.53;2.72;;;;;;;15.19;61.41;98270.78;2070423;28;19980;-49
2023/01/28 00:22:46;;;;;;;;;;;;;;;15.13;61.50;98267.03;2072184;28;20050;-46
2023/01/28 00:23:51;;;;;;;4.78;2.97;;;;;;;15.22;61.37;98278.44;2070001;28;20387;-48
2023/01/28 00:24:54;;;;;;;3.92;2.63;;;;;;;15.30;61.05;98272.97;2071823;28;20042;-48
2023/01/28 00:25:57;;;;;;;6.25;3.00;;;;;;;15.34;61.01;98276.06;2071485;28;20057;-49
2023/01/28 00:26:59;;;;;;;8.52;3.40;;;;;;;15.36;61.05;98282.88;2070150;28;20061;-48
2023/01/28 00:27:59;;;;;;;6.55;2.90;;;;;;;15.41;60.99;98274.28;2070122;28;20053;-49
2023/01/28 00:29:01;;;;;;;;;;;;;;;15.37;60.96;98279.19;2071116;28;20574;-48
2023/01/28 00:30:02;;;;;;;5.78;3.28;;;;;;;15.40;61.10;98278.78;2070190;28;19994;-47
2023/01/28 00:31:08;;;;;;;4.55;3.15;;;;;;;15.49;60.92;98265.31;2068469;28;20428;-48
2023/01/28 00:32:10;;;;;;;6.70;3.67;;;;;;;15.51;60.88;98279.31;2068414;28;20049;-48
2023/01/28 00:33:10;;;;;;;3.67;2.60;;;;;;;15.58;60.81;98269.50;2070201;28;20053;-48
2023/01/28 00:34:12;;;;;;;;;;;;;;;15.54;60.86;98273.56;2068205;28;20696;-47
2023/01/28 00:35:14;;;;;;;4.55;3.13;;;;;;;15.61;60.90;98266.44;2071703;28;19948;-48
2023/01/28 00:36:16;;;;;;;;;;;;;;;15.59;60.90;98265.81;2070758;28;20056;-48
2023/01/28 00:37:18;;;;;;;3.17;2.60;;;;;;;15.64;60.76;98274.06;2071651;28;20722;-48
2023/01/28 00:38:18;;;;;;;4.55;2.72;;;;;;;15.70;60.77;98272.50;2069455;28;20622;-47
2023/01/28 00:39:20;;;;;;;;;;;;;;;15.70;60.80;98270.66;2069700;28;20045;-49
2023/01/28 00:40:22;;;;;;;4.75;2.85;;;;;;;15.78;60.65;98269.69;2070014;28;19983;-49
2023/01/28 00:41:26;;;;;;;5.90;2.72;;;;;;;15.79;60.64;98266.81;2071688;28;20049;-50
2023/01/28 00:42:26;;;;;;;5.30;3.60;;;;;;;15.82;60.51;98266.44;2069305;28;20053;-48
2023/01/28 00:43:28;;;;;;;;;;;;;;;15.81;60.49;98269.31;2069574;28;20062;-49
2023/01/28 00:44:28;;;;;;;4.22;3.33;;;;;;;15.85;60.49;98265.22;2068270;28;20322;-47
2023/01/28 00:45:30;;;;;;;;;;;;;;;15.82;60.56;98262.94;2071142;28;20049;-47
2023/01/28 00:46:30;;;;;;;4.65;3.35;;;;;;;15.90;60.47;98267.31;2071811;28;19925;-46
2023/01/28 00:47:32;;;;;;;;;;;;;;;15.85;60.65;98270.56;2071512;28;20610;-49
2023/01/28 00:48:33;;;;;;;6.93;2.47;;;;;;;15.92;60.35;98270.63;2071748;28;20433;-45
2023/01/28 00:49:34;;;;;;;;;;;;;;;15.91;60.35;98264.47;2070008;28;20053;-48
2023/01/28 00:50:35;;;;;;;;;;;;;;;15.90;60.45;98272.66;2071664;28;20280;-47
2023/01/28 00:51:36;;;;;;;5.23;2.73;;;;;;;15.91;60.50;98269.81;2070613;28;19959;-47
2023/01/28 00:52:37;;;;;;;6.00;3.03;;;;;;;15.98;60.33;98265.31;2069854;28;20138;-48
2023/01/28 00:53:39;;;;;;;;;;;;;;;15.96;60.41;98263.84;2070059;28;20049;-46
2023/01/28 00:54:39;;;;;;;4.05;2.80;;;;;;;16.01;60.31;98270.25;2070839;28;19974;-48
2023/01/28 00:55:42;;;;;;;;;;;;;;;16.00;60.22;98262.44;2069341;28;20626;-46
2023/01/28 00:56:43;;;;;;;4.38;2.60;;;;;;;16.01;60.33;98270.25;2070340;28;19964;-48
2023/01/28 00:57:44;;;;;;;;;;;;;;;15.99;60.25;98272.34;2068766;28;20716;-47
2023/01/28 00:58:45;;;;;;;3.95;2.47;;;;;;;16.00;60.33;98268.63;2068365;28;20395;-50
2023/01/28 00:59:46;;;;;;;;;;;;;;;15.92;60.56;98284.00;2071479;28;20072;-47
2023/01/28 01:00:47;;;;;;;2.67;2.15;;;;;;;15.98;60.45;98281.34;2071075;28;20010;-48
2023/01/28 01:01:48;;;;;;;;;;;;;;;15.95;60.65;98275.59;2068119;28;20705;-48
2023/01/28 01:02:49;;;;;;;4.00;2.42;;;;;;;16.02;60.56;98281.81;2070108;28;19994;-46
2023/01/28 01:03:56;;;;;;;;;;;;;;;15.99;60.47;98280.34;2061796;28;20108;-49
2023/01/28 01:05:00;;;;;;;3.92;2.55;;;;;;;16.06;60.45;98281.22;2064355;28;19929;-47
2023/01/28 01:06:01;;;;;;;3.05;2.60;;;;;;;16.11;60.40;98288.66;2068956;28;20068;-49
2023/01/28 01:07:03;;;;;;;4.00;2.20;;;;;;;16.19;60.12;98280.47;2067418;28;20053;-47
2023/01/28 01:08:04;;;;;;;5.22;3.00;;;;;;;16.19;60.35;98274.31;2069505;28;20049;-49
2023/01/28 01:09:08;;;;;;;4.63;2.60;;;;;;;16.25;60.04;98274.34;2068327;28;20107;-46
2023/01/28 01:10:11;;;;;;;5.60;2.70;;;;;;;16.32;59.91;98277.03;2067317;28;20058;-48
2023/01/28 01:11:14;;;;;;;4.47;2.35;;;;;;;16.34;59.89;98271.50;2068387;28;20045;-49
2023/01/28 01:12:14;;;;;;;5.15;2.92;;;;;;;16.39;59.80;98282.44;2068475;28;20049;-49
2023/01/28 01:13:16;;;;;;;;;;;;;;;16.35;59.83;98292.69;2065709;28;20058;-46
2023/01/28 01:14:16;;;;;;;2.58;2.25;;;;;;;16.39;59.85;98271.75;2069659;28;19929;-48
2023/01/28 01:15:18;;;;;;;;;;;;;;;16.33;59.91;98278.72;2070317;28;20685;-47
2023/01/28 01:16:19;;;;;;;4.15;2.65;;;;;;;16.36;59.95;98282.84;2070807;28;20424;-48
2023/01/28 01:17:21;;;;;;;3.03;2.42;;;;;;;16.39;59.86;98279.78;2069817;28;20053;-49
2023/01/28 01:18:22;;;;;;;3.50;2.63;;;;;;;16.45;59.67;98281.66;2069224;28;20046;-47
2023/01/28 01:19:23;;;;;;;;;;;;;;;16.40;59.74;98278.75;2068729;28;20091;-50
2023/01/28 01:20:26;;;;;;;4.13;1.98;;;;;;;16.46;59.71;98277.94;2070173;28;20541;-48
2023/01/28 01:21:29;;;;;;;5.20;2.50;;;;;;;16.48;59.66;98278.56;2070459;28;20132;-48
2023/01/28 01:22:32;;;;;;;4.63;2.28;;;;;;;16.51;59.63;98280.84;2067272;28;20050;-46
2023/01/28 01:23:34;;;;;;;4.63;2.83;;;;;;;16.55;59.45;98287.47;2069665;28;20057;-49
2023/01/28 01:24:34;;;;;;;5.30;2.05;;;;;;;16.58;59.55;98287.09;2070025;28;20100;-50
2023/01/28 01:25:36;;;;;;;;;;;;;;;16.50;59.52;98284.56;2069600;28;20057;-49
2023/01/28 01:26:38;;;;;;;4.07;2.40;;;;;;;16.53;59.73;98286.84;2068864;28;19975;-47
2023/01/28 01:27:40;;;;;;;3.05;2.53;;;;;;;16.54;59.56;98285.81;2069915;28;20077;-48
2023/01/28 01:28:41;;;;;;;4.95;2.03;;;;;;;16.56;59.39;98290.97;2069594;28;20466;-48
2023/01/28 01:29:42;;;;;;;4.18;2.72;;;;;;;16.58;59.38;98286.25;2068259;28;20050;-46
2023/01/28 01:30:43;;;;;;;4.22;2.35;;;;;;;16.59;59.37;98293.25;2071140;28;20454;-47
2023/01/28 01:31:45;;;;;;;;;;;;;;;16.51;59.62;98296.91;2071684;28;20099;-46
2023/01/28 01:32:45;;;;;;;3.00;1.80;;;;;;;16.53;59.51;98295.69;2070817;28;20447;-48
2023/01/28 01:33:47;;;;;;;;;;;;;;;16.46;59.62;98310.88;2071443;28;20579;-47
2023/01/28 01:34:48;;;;;;;2.95;2.10;;;;;;;16.50;59.58;98300.63;2067754;28;19955;-45
2023/01/28 01:35:53;;;;;;;;;;;;;;;16.41;59.73;98301.78;2068581;28;20077;-46
2023/01/28 01:36:54;;;;;;;3.85;2.35;;;;;;;16.44;59.85;98302.25;2069879;28;19976;-48
2023/01/28 01:37:55;;;;;;;2.58;2.05;;;;;;;16.51;59.61;98299.59;2071122;28;20038;-49
2023/01/28 01:38:56;;;;;;;;;;;;;;;16.46;59.66;98304.72;2070748;28;20439;-48
2023/01/28 01:39:57;;;;;;;3.35;2.65;;;;;;;16.52;59.61;98303.94;2068813;28;19926;-49
2023/01/28 01:40:59;;;;;;;;;;;;;;;16.48;59.70;98302.66;2068916;28;20128;-48
2023/01/28 01:42:01;;;;;;;;;;;;;;;16.44;59.85;98310.28;2069354;28;19983;-48
2023/01/28 01:43:09;;;;;;;3.35;2.20;;;;;;;16.53;59.76;98309.09;2071318;28;19922;-51
2023/01/28 01:44:44;;;;;;;4.57;2.33;;;;;;;16.56;59.55;98310.53;2068582;28;20496;-52
2023/01/28 01:45:50;;;;;;;3.75;1.98;;;;;;;16.63;59.43;98316.78;2069083;28;20987;-48
2023/01/28 01:46:51;;;;;;;3.38;2.47;;;;;;;16.64;59.41;98317.59;2070686;28;20046;-48
2023/01/28 01:47:56;;;;;;;;;;;;;;;16.59;59.58;98306.66;2069471;28;20096;-47
2023/01/28 01:49:03;;;;;;;2.70;2.05;;;;;;;16.64;59.45;98307.69;2070066;28;19971;-51
2023/01/28 01:50:11;;;;;;;4.45;2.17;;;;;;;16.66;59.37;98311.00;2070781;28;20054;-48
2023/01/28 01:51:16;;;;;;;3.95;2.20;;;;;;;16.70;59.28;98306.06;2069447;28;20049;-48
2023/01/28 01:52:23;;;;;;;2.80;1.85;;;;;;;16.73;59.19;98314.53;2070192;28;20077;-47
2023/01/28 01:53:27;;;;;;;3.42;1.73;;;;;;;16.72;59.18;98309.38;2066638;28;20054;-47
2023/01/28 01:54:30;;;;;;;2.50;1.80;;;;;;;16.74;59.10;98310.84;2069457;28;20064;-46
2023/01/28 01:55:34;;;;;;;2.35;2.03;;;;;;;16.74;59.11;98310.84;2068936;28;20058;-48
2023/01/28 01:56:40;;;;;;;3.53;2.35;;;;;;;16.77;59.06;98308.81;2069886;28;20155;-48
2023/01/28 01:57:44;;;;;;;3.05;1.95;;;;;;;16.75;59.01;98312.50;2069994;28;20057;-49
2023/01/28 01:58:50;;;;;;;2.67;1.95;;;;;;;16.76;59.05;98313.31;2069343;28;20126;-48
2023/01/28 01:59:51;;;;;;;1.90;1.60;;;;;;;16.74;59.07;98302.81;2069948;28;20073;-48
2023/01/28 02:00:53;;;;;;;4.75;2.58;;;;;;;16.73;59.08;98306.50;2067327;28;20061;-47
2023/01/28 02:01:54;;;;;;;3.72;2.00;;;;;;;16.79;59.00;98312.13;2069092;28;20095;-47
2023/01/28 02:02:57;;;;;;;2.95;1.90;;;;;;;16.75;59.06;98304.44;2068222;28;20045;-48
2023/01/28 02:04:04;;;;;;;5.55;2.47;;;;;;;16.75;59.05;98309.81;2066644;28;20267;-46
2023/01/28 02:05:08;;;;;;;3.65;1.98;;;;;;;16.75;58.98;98309.81;2069299;28;20111;-49
2023/01/28 02:06:08;;;;;;;3.60;2.17;;;;;;;16.75;58.93;98312.50;2070273;28;20050;-48
2023/01/28 02:07:12;;;;;;;;;;;;;;;16.66;59.09;98311.00;2068251;28;20050;-49
2023/01/28 02:08:21;;;;;;;3.22;2.03;;;;;;;16.69;59.14;98307.94;2070701;28;20388;-47
2023/01/28 02:09:25;;;;;;;4.32;2.20;;;;;;;16.71;59.15;98308.53;2069189;28;20066;-48
2023/01/28 02:10:26;;;;;;;2.38;1.85;;;;;;;16.74;59.04;98308.16;2069976;28;20053;-47
2023/01/28 02:11:29;;;;;;;;;;;;;;;16.66;59.13;98312.84;2072410;28;20045;-47
2023/01/28 02:12:35;;;;;;;2.75;2.13;;;;;;;16.68;59.11;98308.13;2062106;28;19979;-47
2023/01/28 02:13:43;;;;;;;4.18;2.28;;;;;;;16.71;59.08;98313.91;2070160;28;20456;-46
2023/01/28 02:14:47;;;;;;;4.13;2.55;;;;;;;16.71;59.09;98308.53;2068133;28;20049;-49
2023/01/28 02:15:49;;;;;;;3.83;2.45;;;;;;;16.72;58.90;98307.53;2067863;28;20057;-47
2023/01/28 02:16:50;;;;;;;3.47;2.65;;;;;;;16.73;58.95;98308.34;2069691;28;20091;-50
2023/01/28 02:17:52;;;;;;;;;;;;;;;16.63;58.97;98311.41;2070109;28;20092;-48
2023/01/28 02:18:53;;;;;;;2.28;1.83;;;;;;;16.64;59.17;98313.06;2066691;28;19979;-48
2023/01/28 02:19:57;;;;;;;;;;;;;;;16.57;59.27;98314.03;2071201;28;20194;-50
2023/01/28 02:21:30;;;;;;;3.15;2.13;;;;;;;16.60;59.17;98309.09;2071412;28;19929;-49
2023/01/28 02:23:05;;;;;;;2.78;2.20;;;;;;;16.60;59.14;98310.97;2069083;28;20075;-49
2023/01/28 02:24:39;;;;;;;3.72;2.45;;;;;;;16.62;58.99;98314.28;2067469;28;20118;-47
2023/01/28 02:26:19;;;;;;;2.42;1.77;;;;;;;16.58;59.10;98311.19;2071214;28;20106;-48
2023/01/28 02:27:27;;;;;;;3.10;2.10;;;;;;;16.60;59.10;98314.47;2070383;28;20543;-47
2023/01/28 02:28:34;;;;;;;2.20;1.65;;;;;;;16.61;58.88;98308.09;2069607;28;20686;-47
2023/01/28 02:29:40;;;;;;;2.63;1.85;;;;;;;16.64;58.99;98315.72;2070009;28;20068;-49
2023/01/28 02:30:46;;;;;;;2.75;1.75;;;;;;;16.63;58.76;98306.06;2069330;28;20574;-46
2023/01/28 02:31:53;;;;;;;3.55;2.10;;;;;;;16.63;58.80;98303.38;2070050;28;20046;-47
2023/01/28 02:33:00;;;;;;;2.22;1.98;;;;;;;16.63;58.80;98305.22;2070267;28;20052;-47
2023/01/28 02:34:08;;;;;;;3.33;2.38;;;;;;;16.64;58.84;98306.88;2070518;28;20094;-49
2023/01/28 02:35:14;;;;;;;3.42;1.98;;;;;;;16.62;58.88;98303.56;2069113;28;20050;-48
2023/01/28 02:36:22;;;;;;;3.45;1.90;;;;;;;16.62;58.84;98307.06;2069932;28;20049;-47
2023/01/28 02:37:29;;;;;;;3.53;2.03;;;;;;;16.61;58.68;98308.09;2073635;28;20052;-49
2023/01/28 02:38:35;;;;;;;2.13;1.85;;;;;;;16.63;58.74;98315.91;2072686;28;20479;-50
2023/01/28 02:39:48;;;;;;;3.47;1.95;;;;;;;16.61;58.72;98307.28;2071692;28;20092;-49
2023/01/28 02:41:01;;;;;;;4.85;2.53;;;;;;;16.59;58.70;98304.78;2071558;28;20458;-48
2023/01/28 02:42:07;;;;;;;2.25;1.83;;;;;;;16.57;58.88;98312.19;2070425;28;20049;-47
2023/01/28 02:43:08;;;;;;;2.15;1.67;;;;;;;16.55;58.80;98300.88;2068175;28;20053;-47
2023/01/28 02:44:11;;;;;;;;;;;;;;;16.43;58.98;98316.63;2070454;28;20049;-48
2023/01/28 02:45:19;;;;;;;3.13;1.80;;;;;;;16.47;58.93;98315.22;2070861;28;19930;-48
2023/01/28 02:47:58;;;;;;;2.20;1.67;;;;;;;16.49;59.00;98315.03;2069694;28;20041;-48
2023/01/28 02:49:01;;;;;;;2.78;1.98;;;;;;;16.50;58.83;98314.00;2069514;28;20048;-48
2023/01/28 02:50:07;;;;;;;3.65;2.00;;;;;;;16.54;58.87;98318.75;2072919;28;20098;-48
2023/01/28 02:51:17;;;;;;;4.93;2.05;;;;;;;16.53;58.90;98321.66;2070579;28;20053;-48
2023/01/28 02:53:57;;;;;;;3.53;2.25;;;;;;;16.51;59.09;98323.69;2070009;28;20045;-49
2023/01/28 02:55:06;;;;;;;3.15;1.83;;;;;;;16.54;59.13;98324.09;2070255;28;20045;-48
2023/01/28 02:56:18;;;;;;;4.05;1.88;;;;;;;16.54;59.20;98323.28;2070944;28;20053;-48
2023/01/28 02:57:34;;;;;;;2.55;2.28;;;;;;;16.52;59.23;98317.34;2071087;28;20057;-47
2023/01/28 02:58:41;;;;;;;3.50;1.55;;;;;;;16.57;59.21;98317.53;2071060;28;20103;-47
2023/01/28 02:59:51;;;;;;;2.63;1.95;;;;;;;16.61;59.25;98324.16;2070799;28;20080;-50
2023/01/28 03:00:58;;;;;;;3.33;1.80;;;;;;;16.65;59.29;98322.72;2067010;28;20054;-48
2023/01/28 03:02:08;;;;;;;2.63;1.80;;;;;;;16.66;59.27;98316.38;2068615;28;20321;-49
2023/01/28 03:03:15;;;;;;;2.85;1.80;;;;;;;16.69;59.13;98324.00;2069256;28;20050;-48
2023/01/28 03:04:23;;;;;;;2.10;1.70;;;;;;;16.76;58.99;98324.03;2069179;28;21256;-47
2023/01/28 03:05:28;;;;;;;1.92;1.63;;;;;;;16.76;59.06;98326.69;2067708;28;20053;-49
2023/01/28 03:06:38;;;;;;;4.13;2.42;;;;;;;16.85;58.89;98327.38;2069829;28;20053;-47
2023/01/28 03:07:38;;;;;;;1.85;1.52;;;;;;;16.87;58.95;98325.34;2068806;28;20048;-50
2023/01/28 03:10:07;;;;;;;2.88;1.85;;;;;;;16.82;59.29;98322.44;2065945;28;19929;-47
2023/01/28 03:37:15;;;;;;;2.00;1.30;;;;;;;17.11;58.71;98313.28;2069968;28;20041;-47
2023/01/28 03:38:21;;;;;;;3.25;1.58;;;;;;;17.13;58.63;98327.28;2069283;28;20108;-50
2023/01/28 03:39:25;;;;;;;2.38;1.73;;;;;;;17.15;58.55;98326.06;2067273;28;20080;-48
2023/01/28 03:40:27;;;;;;;2.30;1.42;;;;;;;17.12;58.64;98315.75;2067705;28;22261;-48
2023/01/28 03:41:27;;;;;;;2.75;1.50;;;;;;;17.11;58.60;98327.50;2069348;28;20045;-48
2023/01/28 03:42:30;;;;;;;;;;;;;;;17.02;58.72;98327.88;2067176;28;20129;-50
2023/01/28 03:43:32;;;;;;;4.10;1.80;;;;;;;17.06;58.91;98335.31;2067770;28;20260;-48
2023/01/28 03:44:49;;;;;;;3.42;1.65;;;;;;;17.07;58.67;98328.91;2068259;28;20413;-48
2023/01/28 03:45:54;;;;;;;2.22;1.40;;;;;;;17.07;58.75;98325.41;2068257;28;20049;-48
2023/01/28 03:46:54;;;;;;;2.78;1.45;;;;;;;17.09;58.62;98321.50;2069932;28;20077;-48
2023/01/28 03:47:56;;;;;;;;;;;;;;;17.03;58.65;98327.69;2070611;28;20060;-48
2023/01/28 03:48:56;;;;;;;1.67;1.55;;;;;;;17.03;58.77;98325.00;2070359;28;19975;-48
2023/01/28 03:49:59;;;;;;;;;;;;;;;16.96;59.02;98329.50;2069570;28;20064;-48
2023/01/28 03:51:00;;;;;;;2.65;1.20;;;;;;;17.00;58.93;98322.72;2070079;28;19928;-54
2023/01/28 03:52:01;;;;;;;;;;;;;;;16.92;59.14;98341.66;2069106;28;20065;-54
2023/01/28 03:53:11;;;;;;;2.22;1.10;;;;;;;16.98;58.88;98338.16;2068393;28;19925;-50
2023/01/28 03:54:13;;;;;;;2.00;1.67;;;;;;;17.04;58.69;98332.00;2058562;28;20136;-47
2023/01/28 03:55:13;;;;;;;1.55;1.25;;;;;;;17.03;58.72;98327.69;2069382;28;20841;-49
2023/01/28 03:56:18;;;;;;;;;;;;;;;16.95;59.05;98333.22;2068387;28;20053;-49
2023/01/28 03:57:22;;;;;;;1.65;1.13;;;;;;;16.98;58.90;98330.13;2068457;28;20012;-50
2023/01/28 03:58:25;;;;;;;2.80;1.60;;;;;;;17.07;59.04;98333.44;2068422;28;20053;-50
2023/01/28 03:59:26;;;;;;;2.05;1.80;;;;;;;17.09;58.81;98328.72;2067650;28;20081;-50
2023/01/28 04:00:28;;;;;;;;;;;;;;;17.03;58.99;98333.03;2065591;28;20049;-50
2023/01/28 04:01:30;;;;;;;;;;;;;;;16.98;58.96;98340.84;2071477;28;20020;-50
2023/01/28 04:02:31;;;;;;;1.55;1.35;;;;;;;17.05;58.97;98335.50;2067876;28;19943;-48
2023/01/28 04:03:32;;;;;;;2.58;1.55;;;;;;;17.12;58.68;98339.84;2070489;28;20463;-51
2023/01/28 04:04:33;;;;;;;;;;;;;;;17.03;58.97;98338.38;2068932;28;20041;-50
2023/01/28 04:05:34;;;;;;;2.00;1.30;;;;;;;17.09;58.90;98331.41;2068580;28;20048;-47
2023/01/28 04:06:36;;;;;;;;;;;;;;;17.06;58.84;98329.94;2068655;28;20527;-49
2023/01/28 04:07:38;;;;;;;2.83;1.60;;;;;;;17.12;58.68;98334.50;2067067;28;19994;-50
2023/01/28 04:08:44;;;;;;;1.50;1.23;;;;;;;17.20;58.62;98339.69;2070300;28;20164;-51
2023/01/28 04:09:45;;;;;;;2.00;1.52;;;;;;;17.22;58.59;98327.91;2068733;28;20038;-52
2023/01/28 04:10:46;;;;;;;;;;;;;;;17.12;58.71;98339.84;2066793;28;20170;-49
2023/01/28 04:11:48;;;;;;;2.38;1.85;;;;;;;17.15;58.68;98338.63;2069318;28;19982;-51
2023/01/28 04:12:53;;;;;;;1.75;1.60;;;;;;;17.20;58.61;98344.22;2069583;28;20117;-48
2023/01/28 04:13:53;;;;;;;2.17;1.40;;;;;;;17.22;58.70;98341.31;2067001;28;20499;-50
2023/01/28 04:14:55;;;;;;;;;;;;;;;17.16;58.67;98341.13;2068022;28;20049;-48
2023/01/28 04:15:55;;;;;;;1.88;1.35;;;;;;;17.17;58.69;98350.81;2067315;28;20019;-47
2023/01/28 04:16:58;;;;;;;;;;;;;;;17.10;58.70;98335.72;2069625;28;21187;-49
2023/01/28 04:17:59;;;;;;;2.00;1.30;;;;;;;17.11;58.86;98338.22;2068259;28;19925;-49
2023/01/28 04:19:01;;;;;;;;;;;;;;;17.06;58.90;98340.66;2069505;28;20053;-49
2023/01/28 04:20:01;;;;;;;1.48;1.35;;;;;;;17.08;59.24;98343.97;2068876;28;19925;-49
2023/01/28 04:21:03;;;;;;;;;;;;;;;17.05;58.98;98341.72;2070330;28;20053;-48
2023/01/28 04:22:06;;;;;;;3.28;1.38;;;;;;;17.10;58.86;98344.59;2067970;28;19932;-52
2023/01/28 04:23:07;;;;;;;1.55;1.45;;;;;;;17.17;58.62;98341.94;2067697;28;20046;-51
2023/01/28 04:24:08;;;;;;;2.83;2.33;;;;;;;17.20;58.55;98344.22;2072279;28;20111;-51
2023/01/28 04:25:10;;;;;;;;;;;;;;;17.09;58.71;98340.25;2067400;28;20140;-49
2023/01/28 04:26:10;;;;;;;;;;;;;;;17.03;58.94;98345.59;2070604;28;19936;-51
2023/01/28 04:27:12;;;;;;;2.10;1.70;;;;;;;17.09;58.84;98342.13;2067982;28;19926;-48
2023/01/28 04:28:13;;;;;;;1.85;1.25;;;;;;;17.12;58.68;98347.91;2067137;28;20050;-53
2023/01/28 04:29:14;;;;;;;;;;;;;;;17.03;58.69;98346.44;2068654;28;20050;-47
2023/01/28 04:30:15;;;;;;;1.52;1.20;;;;;;;17.08;58.77;98346.66;2067670;28;19959;-47
2023/01/28 04:31:17;;;;;;;2.15;1.20;;;;;;;17.11;58.70;98353.47;2069499;28;21266;-47
2023/01/28 04:32:19;;;;;;;2.65;1.55;;;;;;;17.13;58.65;98346.88;2066425;28;20451;-49
2023/01/28 04:33:22;;;;;;;2.63;1.58;;;;;;;17.15;58.54;98339.44;2067926;28;20048;-47
2023/01/28 04:34:22;;;;;;;2.70;1.55;;;;;;;17.18;58.42;98343.59;2068601;28;20041;-48
2023/01/28 04:35:24;;;;;;;;;;;;;;;17.07;58.50;98341.50;2068785;28;20050;-47
2023/01/28 04:36:25;;;;;;;1.98;1.10;;;;;;;17.06;58.79;98342.53;2070001;28;20047;-48
2023/01/28 04:37:26;;;;;;;;;;;;;;;16.98;58.93;98341.66;2068434;28;20720;-49
2023/01/28 04:38:27;;;;;;;1.92;1.50;;;;;;;17.04;58.93;98339.22;2070082;28;19929;-48
2023/01/28 04:39:28;;;;;;;;;;;;;;;16.98;58.90;98348.88;2069593;28;20050;-49
2023/01/28 04:40:29;;;;;;;2.45;1.10;;;;;;;17.03;58.96;98350.97;2069264;28;20387;-48
2023/01/28 04:41:30;;;;;;;;;;;;;;;16.98;59.03;98354.22;2070430;28;20054;-48
2023/01/28 04:42:31;;;;;;;2.65;1.27;;;;;;;17.05;58.95;98355.09;2070118;28;19979;-48
2023/01/28 04:43:32;;;;;;;;;;;;;;;17.00;59.11;98354.88;2070969;28;20455;-50
2023/01/28 04:44:33;;;;;;;2.53;1.40;;;;;;;17.07;59.02;98353.03;2070546;28;20354;-48
2023/01/28 04:45:34;;;;;;;;;;;;;;;17.04;58.93;98355.28;2070584;28;20057;-50
2023/01/28 04:46:35;;;;;;;2.33;1.13;;;;;;;17.09;59.08;98363.56;2070217;28;19925;-46
2023/01/28 04:47:38;;;;;;;;;;;;;;;17.04;59.08;98350.75;2070651;28;20657;-50
2023/01/28 04:48:39;;;;;;;2.95;1.77;;;;;;;17.13;59.11;98357.59;2071167;28;19925;-48
2023/01/28 04:49:40;;;;;;;;;;;;;;;17.10;59.07;98363.34;2067751;28;20577;-49
2023/01/28 04:50:42;;;;;;;2.55;1.40;;;;;;;17.18;58.94;98351.63;2069571;28;19983;-48
2023/01/28 04:51:43;;;;;;;1.48;1.20;;;;;;;17.26;58.62;98364.03;2069009;28;20093;-50
2023/01/28 04:52:44;;;;;;;1.73;1.23;;;;;;;17.28;58.71;98367.34;2068615;28;20054;-47
2023/01/28 04:53:45;;;;;;;;;;;;;;;17.21;58.65;98356.59;2070450;28;20095;-48
2023/01/28 04:54:46;;;;;;;1.48;1.38;;;;;;;17.27;58.75;98354.94;2068364;28;19925;-46
2023/01/28 04:55:47;;;;;;;;;;;;;;;17.20;58.81;98365.66;2070642;28;20532;-46
2023/01/28 04:56:48;;;;;;;2.55;1.63;;;;;;;17.26;58.85;98358.66;2070204;28;19986;-48
2023/01/28 04:57:49;;;;;;;;;;;;;;;17.19;58.95;98370.19;2070073;28;20096;-49
2023/01/28 04:58:50;;;;;;;1.75;1.13;;;;;;;17.30;58.66;98365.25;2069345;28;20338;-47
2023/01/28 04:59:51;;;;;;;;;;;;;;;17.25;58.80;98363.22;2073251;28;20053;-49
2023/01/28 05:00:54;;;;;;;1.70;1.20;;;;;;;17.30;58.67;98362.59;2069117;28;20330;-51
2023/01/28 05:01:56;;;;;;;1.70;1.00;;;;;;;17.36;58.41;98380.56;2069869;28;20054;-47
2023/01/28 05:02:58;;;;;;;1.88;1.35;;;;;;;17.39;58.29;98364.91;2070327;28;20069;-48
2023/01/28 05:04:04;;;;;;;2.10;1.13;;;;;;;17.37;58.43;98368.81;2069481;28;20141;-49
2023/01/28 05:05:07;;;;;;;2.55;1.85;;;;;;;17.38;58.41;98376.66;2069187;28;20054;-46
2023/01/28 05:06:09;;;;;;;1.77;0.95;;;;;;;17.39;58.33;98382.84;2068823;28;20123;-47
2023/01/28 05:07:10;;;;;;;1.52;1.20;;;;;;;17.39;58.48;98377.47;2069909;28;20119;-47
2023/01/28 05:08:11;;;;;;;;;;;;;;;17.30;58.53;98384.88;2069249;28;20495;-47
2023/01/28 05:09:12;;;;;;;2.42;1.50;;;;;;;17.34;58.62;98390.66;2069013;28;20009;-47
2023/01/28 05:10:13;;;;;;;;;;;;;;;17.30;58.71;98389.38;2070426;28;20459;-48
2023/01/28 05:11:14;;;;;;;2.67;1.20;;;;;;;17.33;58.59;98389.00;2069465;28;19933;-46
2023/01/28 05:12:15;;;;;;;;;;;;;;;17.29;58.68;98396.63;2071534;28;20053;-47
2023/01/28 05:13:16;;;;;;;1.73;1.35;;;;;;;17.35;58.60;98392.28;2070477;28;19991;-48
2023/01/28 05:14:17;;;;;;;;;;;;;;;17.27;58.73;98395.16;2071622;28;20057;-47
2023/01/28 05:15:19;;;;;;;1.23;1.10;;;;;;;17.28;58.73;98392.28;2071215;28;19971;-49
2023/01/28 05:16:21;;;;;;;2.53;1.55;;;;;;;17.34;58.65;98398.69;2070437;28;20059;-48
2023/01/28 05:17:21;;;;;;;3.10;2.20;;;;;;;17.37;58.28;98398.28;2070500;28;20042;-46
2023/01/28 05:18:24;;;;;;;;;;;;;;;17.30;58.63;98400.13;2068491;28;20062;-48
2023/01/28 05:19:25;;;;;;;1.95;1.38;;;;;;;17.33;58.68;98399.75;2067570;28;19982;-46
2023/01/28 05:20:27;;;;;;;;;;;;;;;17.24;58.72;98403.59;2069728;28;20107;-49
2023/01/28 05:21:27;;;;;;;;;;;;;;;17.19;58.91;98405.03;2068421;28;19975;-47
2023/01/28 05:22:29;;;;;;;2.03;1.27;;;;;;;17.27;58.82;98403.19;2071088;28;19925;-48
2023/01/28 05:23:29;;;;;;;1.95;1.38;;;;;;;17.33;58.58;98403.25;2068387;28;20046;-48
2023/01/28 05:24:31;;;;;;;;;;;;;;;17.26;58.89;98401.56;2070580;28;20099;-49
2023/01/28 05:25:31;;;;;;;1.40;1.02;;;;;;;17.29;58.68;98398.47;2069178;28;19925;-47
2023/01/28 05:26:33;;;;;;;;;;;;;;;17.28;58.96;98407.56;2069529;28;20054;-48
2023/01/28 05:27:33;;;;;;;1.35;0.90;;;;;;;17.33;58.82;98397.06;2067836;28;20016;-50
2023/01/28 05:28:35;;;;;;;;;;;;;;;17.29;58.68;98395.78;2071550;28;20052;-48
2023/01/28 05:29:36;;;;;;;2.53;1.17;;;;;;;17.34;58.83;98409.41;2067458;28;19956;-48
2023/01/28 05:30:37;;;;;;;;;;;;;;;17.27;58.72;98408.56;2069359;28;20423;-48
2023/01/28 05:31:38;;;;;;;;;;;;;;;17.25;58.80;98406.09;2070008;28;19925;-48
2023/01/28 05:32:39;;;;;;;1.60;0.90;;;;;;;17.32;58.68;98412.28;2070311;28;20019;-48
2023/01/28 05:33:41;;;;;;;1.67;1.25;;;;;;;17.40;58.50;98406.75;2069353;28;20052;-48
2023/01/28 05:34:43;;;;;;;1.55;1.20;;;;;;;17.45;58.39;98411.53;2070201;28;20053;-47
2023/01/28 05:35:44;;;;;;;2.05;1.25;;;;;;;17.46;58.28;98410.47;2067330;28;20061;-45
2023/01/28 05:36:45;;;;;;;;;;;;;;;17.36;58.56;98399.34;2072842;28;20396;-48